sensor_id;sensor_type;location;lat;lon;timestamp;P1;durP1;ratioP1;P2;durP2;ratioP2
5381;SDS011;2714;49.852;6.564;2023-01-10T00:48:54;5.00;;;2.27;;
5381;SDS011;2714;49.852;6.564;2023-01-10T00:52:56;7.77;;;3.13;;
5381;SDS011;2714;49.852;6.564;2023-01-10T00:56:56;4.73;;;2.70;;
5381;SDS011;2714;49.852;6.564;2023-01-10T01:00:57;3.80;;;2.60;;
5381;SDS011;2714;49.852;6.564;2023-01-10T01:04:57;6.10;;;3.00;;
5381;SDS011;2714;49.852;6.564;2023-01-10T01:08:58;10.33;;;3.17;;
5381;SDS011;2714;49.852;6.564;2023-01-10T01:13:01;8.30;;;3.00;;
5381;SDS011;2714;49.852;6.564;2023-01-10T01:17:06;4.77;;;3.03;;
5381;SDS011;2714;49.852;6.564;2023-01-10T01:21:07;12.43;;;3.10;;
5381;SDS011;2714;49.852;6.564;2023-01-10T01:25:08;8.77;;;3.27;;
5381;SDS011;2714;49.852;6.564;2023-01-10T01:29:09;9.93;;;3.60;;
5381;SDS011;2714;49.852;6.564;2023-01-10T01:33:09;10.33;;;4.17;;
5381;SDS011;2714;49.852;6.564;2023-01-10T01:37:10;10.10;;;3.90;;
5381;SDS011;2714;49.852;6.564;2023-01-10T01:41:10;14.63;;;3.40;;
5381;SDS011;2714;49.852;6.564;2023-01-10T01:45:35;19.90;;;3.93;;
5381;SDS011;2714;49.852;6.564;2023-01-10T01:49:37;14.83;;;3.40;;
5381;SDS011;2714;49.852;6.564;2023-01-10T01:53:43;7.63;;;3.40;;
5381;SDS011;2714;49.852;6.564;2023-01-10T01:57:49;7.90;;;3.30;;
5381;SDS011;2714;49.852;6.564;2023-01-10T02:01:54;10.37;;;3.87;;
5381;SDS011;2714;49.852;6.564;2023-01-10T02:06:00;8.53;;;3.30;;
5381;SDS011;2714;49.852;6.564;2023-01-10T02:10:02;11.77;;;3.40;;
5381;SDS011;2714;49.852;6.564;2023-01-10T02:14:07;14.17;;;3.30;;
5381;SDS011;2714;49.852;6.564;2023-01-10T02:18:10;12.37;;;3.30;;
5381;SDS011;2714;49.852;6.564;2023-01-10T02:22:24;8.73;;;3.17;;
5381;SDS011;2714;49.852;6.564;2023-01-10T02:26:42;9.50;;;3.73;;
5381;SDS011;2714;49.852;6.564;2023-01-10T02:35:09;14.63;;;3.10;;
5381;SDS011;2714;49.852;6.564;2023-01-10T02:39:37;11.43;;;3.03;;
5381;SDS011;2714;49.852;6.564;2023-01-10T02:43:55;19.03;;;4.33;;
5381;SDS011;2714;49.852;6.564;2023-01-10T02:48:01;15.33;;;3.23;;
5381;SDS011;2714;49.852;6.564;2023-01-10T02:52:02;11.90;;;3.37;;
5381;SDS011;2714;49.852;6.564;2023-01-10T03:05:10;14.63;;;3.47;;
5381;SDS011;2714;49.852;6.564;2023-01-10T03:09:25;11.57;;;3.43;;
5381;SDS011;2714;49.852;6.564;2023-01-10T03:17:53;22.13;;;4.00;;
5381;SDS011;2714;49.852;6.564;2023-01-10T03:21:57;17.20;;;3.60;;
5381;SDS011;2714;49.852;6.564;2023-01-10T03:26:00;8.90;;;3.50;;
5381;SDS011;2714;49.852;6.564;2023-01-10T03:34:15;11.23;;;3.87;;
5381;SDS011;2714;49.852;6.564;2023-01-10T03:38:20;21.73;;;4.30;;
5381;SDS011;2714;49.852;6.564;2023-01-10T03:42:35;13.33;;;3.23;;
5381;SDS011;2714;49.852;6.564;2023-01-10T03:51:05;17.07;;;4.13;;
5381;SDS011;2714;49.852;6.564;2023-01-10T03:55:09;14.13;;;3.80;;
5381;SDS011;2714;49.852;6.564;2023-01-10T03:59:11;10.63;;;3.20;;
5381;SDS011;2714;49.852;6.564;2023-01-10T04:03:12;17.23;;;6.60;;
5381;SDS011;2714;49.852;6.564;2023-01-10T04:07:13;20.17;;;5.40;;
5381;SDS011;2714;49.852;6.564;2023-01-10T04:11:13;20.63;;;5.80;;
5381;SDS011;2714;49.852;6.564;2023-01-10T04:15:14;15.70;;;5.03;;
5381;SDS011;2714;49.852;6.564;2023-01-10T04:19:14;20.30;;;4.60;;
5381;SDS011;2714;49.852;6.564;2023-01-10T04:23:15;22.40;;;7.53;;
5381;SDS011;2714;49.852;6.564;2023-01-10T04:27:16;17.97;;;4.97;;
5381;SDS011;2714;49.852;6.564;2023-01-10T04:31:17;18.90;;;4.47;;
5381;SDS011;2714;49.852;6.564;2023-01-10T04:35:17;14.50;;;4.07;;
5381;SDS011;2714;49.852;6.564;2023-01-10T04:39:18;20.20;;;3.90;;
5381;SDS011;2714;49.852;6.564;2023-01-10T04:43:19;11.27;;;3.73;;
5381;SDS011;2714;49.852;6.564;2023-01-10T04:47:19;15.10;;;3.90;;
5381;SDS011;2714;49.852;6.564;2023-01-10T04:51:20;18.77;;;4.70;;
5381;SDS011;2714;49.852;6.564;2023-01-10T04:55:21;26.20;;;7.73;;
5381;SDS011;2714;49.852;6.564;2023-01-10T04:59:22;19.07;;;5.97;;
5381;SDS011;2714;49.852;6.564;2023-01-10T05:03:23;20.87;;;5.30;;
5381;SDS011;2714;49.852;6.564;2023-01-10T05:07:23;13.30;;;4.17;;
5381;SDS011;2714;49.852;6.564;2023-01-10T05:11:24;15.97;;;4.80;;
5381;SDS011;2714;49.852;6.564;2023-01-10T05:15:24;13.17;;;3.03;;
5381;SDS011;2714;49.852;6.564;2023-01-10T05:19:25;17.60;;;3.80;;
5381;SDS011;2714;49.852;6.564;2023-01-10T05:23:25;15.87;;;4.13;;
5381;SDS011;2714;49.852;6.564;2023-01-10T05:27:27;17.50;;;3.97;;
5381;SDS011;2714;49.852;6.564;2023-01-10T05:31:27;15.50;;;3.57;;
5381;SDS011;2714;49.852;6.564;2023-01-10T05:35:28;15.77;;;4.20;;
5381;SDS011;2714;49.852;6.564;2023-01-10T05:39:28;18.30;;;3.50;;
5381;SDS011;2714;49.852;6.564;2023-01-10T05:43:29;18.07;;;3.90;;
5381;SDS011;2714;49.852;6.564;2023-01-10T05:47:29;21.80;;;3.67;;
5381;SDS011;2714;49.852;6.564;2023-01-10T05:51:30;13.50;;;3.57;;
5381;SDS011;2714;49.852;6.564;2023-01-10T05:55:31;24.40;;;4.63;;
5381;SDS011;2714;49.852;6.564;2023-01-10T05:59:32;13.87;;;3.40;;
5381;SDS011;2714;49.852;6.564;2023-01-10T06:03:33;14.97;;;4.10;;
5381;SDS011;2714;49.852;6.564;2023-01-10T06:07:33;15.47;;;3.50;;
5381;SDS011;2714;49.852;6.564;2023-01-10T06:11:34;14.97;;;4.37;;
5381;SDS011;2714;49.852;6.564;2023-01-10T06:15:37;17.43;;;3.10;;
5381;SDS011;2714;49.852;6.564;2023-01-10T06:19:38;15.00;;;3.40;;
5381;SDS011;2714;49.852;6.564;2023-01-10T06:23:38;11.67;;;3.10;;
5381;SDS011;2714;49.852;6.564;2023-01-10T06:27:40;13.33;;;3.20;;
5381;SDS011;2714;49.852;6.564;2023-01-10T06:31:41;14.37;;;3.00;;
5381;SDS011;2714;49.852;6.564;2023-01-10T06:35:42;14.10;;;3.70;;
5381;SDS011;2714;49.852;6.564;2023-01-10T06:39:45;8.10;;;3.33;;
5381;SDS011;2714;49.852;6.564;2023-01-10T12:49:12;18.33;;;4.60;;
5381;SDS011;2714;49.852;6.564;2023-01-10T12:53:30;22.93;;;4.73;;
5381;SDS011;2714;49.852;6.564;2023-01-10T12:57:40;18.20;;;4.00;;
5381;SDS011;2714;49.852;6.564;2023-01-10T13:01:51;16.83;;;4.50;;
5381;SDS011;2714;49.852;6.564;2023-01-10T13:05:53;21.13;;;4.77;;
5381;SDS011;2714;49.852;6.564;2023-01-10T13:09:56;18.17;;;4.20;;
5381;SDS011;2714;49.852;6.564;2023-01-10T13:13:59;21.77;;;4.80;;
5381;SDS011;2714;49.852;6.564;2023-01-10T13:18:15;10.37;;;3.90;;
5381;SDS011;2714;49.852;6.564;2023-01-10T13:22:27;25.40;;;4.70;;
5381;SDS011;2714;49.852;6.564;2023-01-10T13:30:52;23.33;;;4.90;;
5381;SDS011;2714;49.852;6.564;2023-01-10T13:35:16;13.00;;;3.97;;
5381;SDS011;2714;49.852;6.564;2023-01-10T13:39:20;21.43;;;4.13;;
5381;SDS011;2714;49.852;6.564;2023-01-10T13:51:39;16.10;;;5.17;;
5381;SDS011;2714;49.852;6.564;2023-01-10T14:04:54;27.33;;;4.20;;
5381;SDS011;2714;49.852;6.564;2023-01-10T14:09:29;20.73;;;5.53;;
5381;SDS011;2714;49.852;6.564;2023-01-10T14:13:20;19.30;;;4.00;;
5381;SDS011;2714;49.852;6.564;2023-01-10T14:17:34;14.63;;;3.17;;
5381;SDS011;2714;49.852;6.564;2023-01-10T14:21:40;13.20;;;3.73;;
5381;SDS011;2714;49.852;6.564;2023-01-10T14:25:42;15.43;;;3.93;;
5381;SDS011;2714;49.852;6.564;2023-01-10T14:29:49;17.57;;;3.90;;
5381;SDS011;2714;49.852;6.564;2023-01-10T14:34:00;13.87;;;3.33;;
5381;SDS011;2714;49.852;6.564;2023-01-10T14:38:02;13.60;;;3.60;;
5381;SDS011;2714;49.852;6.564;2023-01-10T14:42:05;18.03;;;3.60;;
5381;SDS011;2714;49.852;6.564;2023-01-10T14:50:30;27.63;;;4.50;;
5381;SDS011;2714;49.852;6.564;2023-01-10T14:54:31;14.10;;;3.87;;
5381;SDS011;2714;49.852;6.564;2023-01-10T14:58:32;16.83;;;3.20;;
5381;SDS011;2714;49.852;6.564;2023-01-10T15:02:32;18.47;;;3.13;;
5381;SDS011;2714;49.852;6.564;2023-01-10T15:11:28;14.33;;;3.23;;
5381;SDS011;2714;49.852;6.564;2023-01-10T15:15:34;17.37;;;3.47;;
5381;SDS011;2714;49.852;6.564;2023-01-10T15:19:37;15.40;;;3.07;;
5381;SDS011;2714;49.852;6.564;2023-01-10T15:23:43;20.00;;;3.53;;
5381;SDS011;2714;49.852;6.564;2023-01-10T15:27:46;19.80;;;3.57;;
5381;SDS011;2714;49.852;6.564;2023-01-10T15:31:48;20.93;;;3.60;;
5381;SDS011;2714;49.852;6.564;2023-01-10T15:35:50;9.73;;;2.57;;
5381;SDS011;2714;49.852;6.564;2023-01-10T15:39:51;17.03;;;3.57;;
5381;SDS011;2714;49.852;6.564;2023-01-10T15:44:10;18.47;;;3.73;;
5381;SDS011;2714;49.852;6.564;2023-01-10T15:48:33;13.80;;;2.87;;
5381;SDS011;2714;49.852;6.564;2023-01-10T15:52:52;14.70;;;3.10;;
5381;SDS011;2714;49.852;6.564;2023-01-10T15:57:05;13.80;;;3.50;;
5381;SDS011;2714;49.852;6.564;2023-01-10T16:01:18;15.07;;;3.10;;
5381;SDS011;2714;49.852;6.564;2023-01-10T16:05:19;16.27;;;2.70;;
5381;SDS011;2714;49.852;6.564;2023-01-10T16:09:21;13.20;;;2.90;;
5381;SDS011;2714;49.852;6.564;2023-01-10T16:13:22;14.67;;;3.13;;
5381;SDS011;2714;49.852;6.564;2023-01-10T16:17:26;18.57;;;3.17;;
5381;SDS011;2714;49.852;6.564;2023-01-10T16:21:28;19.77;;;3.30;;
5381;SDS011;2714;49.852;6.564;2023-01-10T16:25:37;13.67;;;3.23;;
5381;SDS011;2714;49.852;6.564;2023-01-10T16:29:42;13.63;;;2.83;;
5381;SDS011;2714;49.852;6.564;2023-01-10T16:33:43;11.57;;;3.30;;
5381;SDS011;2714;49.852;6.564;2023-01-10T16:37:47;19.97;;;3.83;;
5381;SDS011;2714;49.852;6.564;2023-01-10T16:41:48;18.40;;;5.00;;
5381;SDS011;2714;49.852;6.564;2023-01-10T16:46:08;14.83;;;2.97;;
5381;SDS011;2714;49.852;6.564;2023-01-10T16:50:09;15.93;;;2.90;;
5381;SDS011;2714;49.852;6.564;2023-01-10T16:54:14;17.53;;;3.00;;
5381;SDS011;2714;49.852;6.564;2023-01-10T16:58:19;12.40;;;3.10;;
5381;SDS011;2714;49.852;6.564;2023-01-10T17:02:19;10.57;;;2.43;;
5381;SDS011;2714;49.852;6.564;2023-01-10T17:06:20;16.77;;;3.50;;
5381;SDS011;2714;49.852;6.564;2023-01-10T17:10:21;17.60;;;3.20;;
5381;SDS011;2714;49.852;6.564;2023-01-10T17:14:22;15.30;;;3.27;;
5381;SDS011;2714;49.852;6.564;2023-01-10T17:18:23;12.20;;;3.40;;
5381;SDS011;2714;49.852;6.564;2023-01-10T17:22:25;12.03;;;3.10;;
5381;SDS011;2714;49.852;6.564;2023-01-10T17:26:26;12.40;;;3.03;;
5381;SDS011;2714;49.852;6.564;2023-01-10T17:30:26;18.97;;;3.40;;
5381;SDS011;2714;49.852;6.564;2023-01-10T17:34:27;11.73;;;3.03;;
5381;SDS011;2714;49.852;6.564;2023-01-10T17:38:47;15.63;;;3.50;;
5381;SDS011;2714;49.852;6.564;2023-01-10T17:42:48;10.70;;;3.43;;
5381;SDS011;2714;49.852;6.564;2023-01-10T17:47:09;11.43;;;3.10;;
5381;SDS011;2714;49.852;6.564;2023-01-10T17:51:10;17.97;;;3.63;;
5381;SDS011;2714;49.852;6.564;2023-01-10T17:55:13;15.33;;;3.17;;
5381;SDS011;2714;49.852;6.564;2023-01-10T17:59:13;10.60;;;3.40;;
5381;SDS011;2714;49.852;6.564;2023-01-10T18:03:14;16.67;;;3.70;;
5381;SDS011;2714;49.852;6.564;2023-01-10T18:07:15;9.73;;;3.23;;
5381;SDS011;2714;49.852;6.564;2023-01-10T18:11:15;10.43;;;3.23;;
5381;SDS011;2714;49.852;6.564;2023-01-10T18:15:16;14.03;;;3.20;;
5381;SDS011;2714;49.852;6.564;2023-01-10T18:19:17;11.97;;;3.30;;
5381;SDS011;2714;49.852;6.564;2023-01-10T18:23:17;11.60;;;3.77;;
5381;SDS011;2714;49.852;6.564;2023-01-10T18:27:21;8.60;;;2.80;;
5381;SDS011;2714;49.852;6.564;2023-01-10T18:31:25;11.07;;;3.10;;
5381;SDS011;2714;49.852;6.564;2023-01-10T18:35:26;9.50;;;3.00;;
5381;SDS011;2714;49.852;6.564;2023-01-10T18:39:26;10.60;;;2.70;;
5381;SDS011;2714;49.852;6.564;2023-01-10T18:43:27;10.37;;;3.37;;
5381;SDS011;2714;49.852;6.564;2023-01-10T18:47:28;4.93;;;2.23;;
5381;SDS011;2714;49.852;6.564;2023-01-10T18:51:29;9.00;;;2.50;;
5381;SDS011;2714;49.852;6.564;2023-01-10T18:55:33;7.53;;;2.30;;
5381;SDS011;2714;49.852;6.564;2023-01-10T22:03:45;3.50;;;2.10;;
5381;SDS011;2714;49.852;6.564;2023-01-10T22:07:46;3.50;;;2.20;;
5381;SDS011;2714;49.852;6.564;2023-01-10T22:11:47;4.53;;;2.57;;
5381;SDS011;2714;49.852;6.564;2023-01-10T22:15:47;3.97;;;2.70;;
5381;SDS011;2714;49.852;6.564;2023-01-10T22:19:48;3.63;;;2.60;;
5381;SDS011;2714;49.852;6.564;2023-01-10T22:23:49;4.90;;;2.90;;
5381;SDS011;2714;49.852;6.564;2023-01-10T22:27:49;2.93;;;2.60;;
5381;SDS011;2714;49.852;6.564;2023-01-10T22:31:53;3.03;;;2.23;;
5381;SDS011;2714;49.852;6.564;2023-01-10T22:35:53;6.17;;;3.20;;
5381;SDS011;2714;49.852;6.564;2023-01-10T22:39:54;6.97;;;4.20;;
5381;SDS011;2714;49.852;6.564;2023-01-10T22:43:55;5.00;;;3.57;;
5381;SDS011;2714;49.852;6.564;2023-01-10T22:47:56;6.53;;;4.50;;
5381;SDS011;2714;49.852;6.564;2023-01-10T22:51:56;7.67;;;3.83;;
5381;SDS011;2714;49.852;6.564;2023-01-10T22:56:00;11.87;;;4.30;;
5381;SDS011;2714;49.852;6.564;2023-01-10T23:00:03;7.30;;;4.37;;
5381;SDS011;2714;49.852;6.564;2023-01-10T23:04:05;8.30;;;4.90;;
5381;SDS011;2714;49.852;6.564;2023-01-10T23:08:06;8.33;;;4.80;;
5381;SDS011;2714;49.852;6.564;2023-01-10T23:12:07;8.50;;;4.07;;
5381;SDS011;2714;49.852;6.564;2023-01-10T23:16:09;9.50;;;4.90;;
5381;SDS011;2714;49.852;6.564;2023-01-10T23:20:12;10.00;;;5.40;;
5381;SDS011;2714;49.852;6.564;2023-01-10T23:24:13;7.20;;;4.67;;
5381;SDS011;2714;49.852;6.564;2023-01-10T23:28:15;11.83;;;5.87;;
5381;SDS011;2714;49.852;6.564;2023-01-10T23:32:16;13.67;;;6.07;;
5381;SDS011;2714;49.852;6.564;2023-01-10T23:36:16;9.40;;;5.47;;
5381;SDS011;2714;49.852;6.564;2023-01-10T23:40:17;9.10;;;5.30;;
5381;SDS011;2714;49.852;6.564;2023-01-10T23:44:18;11.53;;;5.43;;
5381;SDS011;2714;49.852;6.564;2023-01-10T23:48:18;6.60;;;4.23;;
5381;SDS011;2714;49.852;6.564;2023-01-10T23:52:19;8.17;;;4.50;;
5381;SDS011;2714;49.852;6.564;2023-01-10T23:56:19;6.80;;;4.33;;
